sensor_id;sensor_type;location;lat;lon;timestamp;temperature;humidity
10030;DHT22;5055;52.054;8.524;2023-02-22T00:01:00;8.10;97.00
10030;DHT22;5055;52.054;8.524;2023-02-22T00:03:35;8.10;97.00
10030;DHT22;5055;52.054;8.524;2023-02-22T00:06:05;8.10;97.00
10030;DHT22;5055;52.054;8.524;2023-02-22T00:08:35;8.10;97.00
10030;DHT22;5055;52.054;8.524;2023-02-22T00:11:06;8.10;97.00
10030;DHT22;5055;52.054;8.524;2023-02-22T00:13:36;8.10;97.00
10030;DHT22;5055;52.054;8.524;2023-02-22T00:16:05;8.10;97.00
10030;DHT22;5055;52.054;8.524;2023-02-22T00:18:35;8.10;97.00
10030;DHT22;5055;52.054;8.524;2023-02-22T00:21:04;8.20;97.00
10030;DHT22;5055;52.054;8.524;2023-02-22T00:23:39;8.10;97.00
10030;DHT22;5055;52.054;8.524;2023-02-22T00:26:09;8.10;97.00
10030;DHT22;5055;52.054;8.524;2023-02-22T00:28:39;8.20;97.00
10030;DHT22;5055;52.054;8.524;2023-02-22T00:31:08;8.20;97.00
10030;DHT22;5055;52.054;8.524;2023-02-22T00:33:39;8.20;97.00
10030;DHT22;5055;52.054;8.524;2023-02-22T00:36:09;8.10;97.00
10030;DHT22;5055;52.054;8.524;2023-02-22T00:38:38;8.20;97.00
10030;DHT22;5055;52.054;8.524;2023-02-22T00:41:07;8.20;97.00
10030;DHT22;5055;52.054;8.524;2023-02-22T00:43:36;8.20;97.00
10030;DHT22;5055;52.054;8.524;2023-02-22T00:46:04;8.20;97.00
10030;DHT22;5055;52.054;8.524;2023-02-22T00:48:33;8.20;97.00
10030;DHT22;5055;52.054;8.524;2023-02-22T00:51:03;8.20;97.00
10030;DHT22;5055;52.054;8.524;2023-02-22T00:53:31;8.20;97.00
10030;DHT22;5055;52.054;8.524;2023-02-22T00:56:00;8.20;97.00
10030;DHT22;5055;52.054;8.524;2023-02-22T00:58:28;8.20;97.00
10030;DHT22;5055;52.054;8.524;2023-02-22T01:00:58;8.20;97.00
10030;DHT22;5055;52.054;8.524;2023-02-22T01:03:26;8.20;97.00
10030;DHT22;5055;52.054;8.524;2023-02-22T01:05:55;8.20;97.00
10030;DHT22;5055;52.054;8.524;2023-02-22T01:08:24;8.20;97.00
10030;DHT22;5055;52.054;8.524;2023-02-22T01:10:55;8.20;97.00
10030;DHT22;5055;52.054;8.524;2023-02-22T01:13:24;8.20;97.00
10030;DHT22;5055;52.054;8.524;2023-02-22T01:15:53;8.10;97.00
10030;DHT22;5055;52.054;8.524;2023-02-22T01:18:22;8.10;97.00
10030;DHT22;5055;52.054;8.524;2023-02-22T01:20:51;8.10;97.00
10030;DHT22;5055;52.054;8.524;2023-02-22T01:23:20;8.10;97.00
10030;DHT22;5055;52.054;8.524;2023-02-22T01:25:50;8.00;97.00
10030;DHT22;5055;52.054;8.524;2023-02-22T01:28:19;8.00;97.00
10030;DHT22;5055;52.054;8.524;2023-02-22T01:30:48;8.00;97.00
10030;DHT22;5055;52.054;8.524;2023-02-22T01:33:17;7.90;97.00
10030;DHT22;5055;52.054;8.524;2023-02-22T01:35:46;7.80;97.00
10030;DHT22;5055;52.054;8.524;2023-02-22T01:38:16;7.80;97.00
10030;DHT22;5055;52.054;8.524;2023-02-22T01:40:47;7.70;97.00
10030;DHT22;5055;52.054;8.524;2023-02-22T01:43:20;7.60;97.00
10030;DHT22;5055;52.054;8.524;2023-02-22T01:45:58;7.50;97.00
10030;DHT22;5055;52.054;8.524;2023-02-22T01:48:39;7.50;97.00
10030;DHT22;5055;52.054;8.524;2023-02-22T01:51:11;7.40;97.00
10030;DHT22;5055;52.054;8.524;2023-02-22T01:53:46;7.30;97.00
10030;DHT22;5055;52.054;8.524;2023-02-22T01:56:17;7.30;97.00
10030;DHT22;5055;52.054;8.524;2023-02-22T01:58:49;7.30;97.00
10030;DHT22;5055;52.054;8.524;2023-02-22T02:01:21;7.20;97.00
10030;DHT22;5055;52.054;8.524;2023-02-22T02:03:51;7.20;97.00
10030;DHT22;5055;52.054;8.524;2023-02-22T02:06:24;7.10;97.00
10030;DHT22;5055;52.054;8.524;2023-02-22T02:08:59;7.00;97.00
10030;DHT22;5055;52.054;8.524;2023-02-22T02:11:30;7.00;97.00
10030;DHT22;5055;52.054;8.524;2023-02-22T02:14:01;6.90;97.00
10030;DHT22;5055;52.054;8.524;2023-02-22T02:16:36;6.90;97.00
10030;DHT22;5055;52.054;8.524;2023-02-22T02:19:11;6.90;97.00
10030;DHT22;5055;52.054;8.524;2023-02-22T02:21:57;6.80;97.00
10030;DHT22;5055;52.054;8.524;2023-02-22T02:25:02;6.80;97.00
10030;DHT22;5055;52.054;8.524;2023-02-22T02:27:45;6.70;97.00
10030;DHT22;5055;52.054;8.524;2023-02-22T02:30:43;6.60;97.00
10030;DHT22;5055;52.054;8.524;2023-02-22T02:33:17;6.60;97.00
10030;DHT22;5055;52.054;8.524;2023-02-22T02:35:51;6.50;97.00
10030;DHT22;5055;52.054;8.524;2023-02-22T02:38:32;6.50;97.00
10030;DHT22;5055;52.054;8.524;2023-02-22T02:41:09;6.40;97.00
10030;DHT22;5055;52.054;8.524;2023-02-22T02:43:44;6.40;97.00
10030;DHT22;5055;52.054;8.524;2023-02-22T02:46:19;6.30;97.00
10030;DHT22;5055;52.054;8.524;2023-02-22T02:48:55;6.20;97.00
10030;DHT22;5055;52.054;8.524;2023-02-22T02:51:28;6.20;97.00
10030;DHT22;5055;52.054;8.524;2023-02-22T02:53:58;6.10;97.00
10030;DHT22;5055;52.054;8.524;2023-02-22T02:56:27;6.00;97.00
10030;DHT22;5055;52.054;8.524;2023-02-22T02:58:56;5.90;97.00
10030;DHT22;5055;52.054;8.524;2023-02-22T03:01:39;5.80;97.00
10030;DHT22;5055;52.054;8.524;2023-02-22T03:04:22;5.80;97.00
10030;DHT22;5055;52.054;8.524;2023-02-22T03:07:15;5.70;97.00
10030;DHT22;5055;52.054;8.524;2023-02-22T03:09:58;5.70;97.00
10030;DHT22;5055;52.054;8.524;2023-02-22T03:12:37;5.60;97.00
10030;DHT22;5055;52.054;8.524;2023-02-22T03:15:20;5.60;97.00
10030;DHT22;5055;52.054;8.524;2023-02-22T03:17:54;5.50;97.00
10030;DHT22;5055;52.054;8.524;2023-02-22T03:20:28;5.40;97.00
10030;DHT22;5055;52.054;8.524;2023-02-22T03:23:03;5.40;97.00
10030;DHT22;5055;52.054;8.524;2023-02-22T03:25:36;5.30;97.00
10030;DHT22;5055;52.054;8.524;2023-02-22T03:28:08;5.30;97.00
10030;DHT22;5055;52.054;8.524;2023-02-22T03:30:43;5.20;97.00
10030;DHT22;5055;52.054;8.524;2023-02-22T03:33:15;5.20;97.00
10030;DHT22;5055;52.054;8.524;2023-02-22T03:35:50;5.10;97.00
10030;DHT22;5055;52.054;8.524;2023-02-22T03:38:26;5.00;97.00
10030;DHT22;5055;52.054;8.524;2023-02-22T03:40:57;5.00;97.00
10030;DHT22;5055;52.054;8.524;2023-02-22T03:43:29;4.90;97.00
10030;DHT22;5055;52.054;8.524;2023-02-22T03:45:59;4.80;97.00
10030;DHT22;5055;52.054;8.524;2023-02-22T03:48:36;4.80;97.00
10030;DHT22;5055;52.054;8.524;2023-02-22T03:51:08;4.70;97.00
10030;DHT22;5055;52.054;8.524;2023-02-22T03:53:36;4.70;97.00
10030;DHT22;5055;52.054;8.524;2023-02-22T03:56:07;4.60;97.00
10030;DHT22;5055;52.054;8.524;2023-02-22T03:58:39;4.60;97.00
10030;DHT22;5055;52.054;8.524;2023-02-22T04:01:11;4.50;97.00
10030;DHT22;5055;52.054;8.524;2023-02-22T04:03:40;4.50;97.00
10030;DHT22;5055;52.054;8.524;2023-02-22T04:06:11;4.40;97.00
10030;DHT22;5055;52.054;8.524;2023-02-22T04:08:39;4.40;97.00
10030;DHT22;5055;52.054;8.524;2023-02-22T04:11:10;4.30;97.00
10030;DHT22;5055;52.054;8.524;2023-02-22T04:13:38;4.30;97.00
10030;DHT22;5055;52.054;8.524;2023-02-22T04:16:06;4.20;97.00
10030;DHT22;5055;52.054;8.524;2023-02-22T04:18:35;4.20;97.00
10030;DHT22;5055;52.054;8.524;2023-02-22T04:21:03;4.20;97.00
10030;DHT22;5055;52.054;8.524;2023-02-22T04:23:33;4.20;97.00
10030;DHT22;5055;52.054;8.524;2023-02-22T04:26:02;4.10;97.00
10030;DHT22;5055;52.054;8.524;2023-02-22T04:28:30;4.10;97.00
10030;DHT22;5055;52.054;8.524;2023-02-22T04:30:59;4.00;97.00
10030;DHT22;5055;52.054;8.524;2023-02-22T04:33:27;4.00;97.00
10030;DHT22;5055;52.054;8.524;2023-02-22T04:35:56;4.00;97.00
10030;DHT22;5055;52.054;8.524;2023-02-22T04:38:25;3.90;97.00
10030;DHT22;5055;52.054;8.524;2023-02-22T04:40:55;3.90;97.00
10030;DHT22;5055;52.054;8.524;2023-02-22T04:43:23;3.80;97.00
10030;DHT22;5055;52.054;8.524;2023-02-22T04:45:52;3.80;97.00
10030;DHT22;5055;52.054;8.524;2023-02-22T04:48:20;3.80;97.00
10030;DHT22;5055;52.054;8.524;2023-02-22T04:50:49;3.80;97.00
10030;DHT22;5055;52.054;8.524;2023-02-22T04:53:18;3.70;97.00
10030;DHT22;5055;52.054;8.524;2023-02-22T04:55:46;3.70;97.00
10030;DHT22;5055;52.054;8.524;2023-02-22T04:58:16;3.70;97.00
10030;DHT22;5055;52.054;8.524;2023-02-22T05:00:48;3.60;97.00
10030;DHT22;5055;52.054;8.524;2023-02-22T05:03:16;3.50;97.00
10030;DHT22;5055;52.054;8.524;2023-02-22T05:05:45;3.50;97.00
10030;DHT22;5055;52.054;8.524;2023-02-22T05:08:13;3.40;97.00
10030;DHT22;5055;52.054;8.524;2023-02-22T05:10:42;3.40;97.00
10030;DHT22;5055;52.054;8.524;2023-02-22T05:13:10;3.30;97.00
10030;DHT22;5055;52.054;8.524;2023-02-22T05:15:40;3.30;97.00
10030;DHT22;5055;52.054;8.524;2023-02-22T05:18:08;3.30;97.00
10030;DHT22;5055;52.054;8.524;2023-02-22T05:20:37;3.20;97.00
10030;DHT22;5055;52.054;8.524;2023-02-22T05:23:05;3.20;97.00
10030;DHT22;5055;52.054;8.524;2023-02-22T05:25:34;3.20;97.00
10030;DHT22;5055;52.054;8.524;2023-02-22T05:28:04;3.10;97.00
10030;DHT22;5055;52.054;8.524;2023-02-22T05:30:35;3.10;97.00
10030;DHT22;5055;52.054;8.524;2023-02-22T05:33:07;3.10;97.00
10030;DHT22;5055;52.054;8.524;2023-02-22T05:35:36;3.00;97.00
10030;DHT22;5055;52.054;8.524;2023-02-22T05:38:04;3.00;97.00
10030;DHT22;5055;52.054;8.524;2023-02-22T05:40:33;3.00;97.00
10030;DHT22;5055;52.054;8.524;2023-02-22T05:43:02;2.90;97.00
10030;DHT22;5055;52.054;8.524;2023-02-22T05:45:31;2.90;97.00
10030;DHT22;5055;52.054;8.524;2023-02-22T05:48:02;2.90;97.00
10030;DHT22;5055;52.054;8.524;2023-02-22T05:50:35;2.80;97.00
10030;DHT22;5055;52.054;8.524;2023-02-22T05:53:04;2.80;97.00
10030;DHT22;5055;52.054;8.524;2023-02-22T05:55:33;2.80;97.00
10030;DHT22;5055;52.054;8.524;2023-02-22T05:58:01;2.70;97.00
10030;DHT22;5055;52.054;8.524;2023-02-22T06:00:32;2.70;97.00
10030;DHT22;5055;52.054;8.524;2023-02-22T06:03:02;2.70;97.00
10030;DHT22;5055;52.054;8.524;2023-02-22T06:05:31;2.70;97.00
10030;DHT22;5055;52.054;8.524;2023-02-22T06:08:02;2.70;97.00
10030;DHT22;5055;52.054;8.524;2023-02-22T06:10:30;2.60;97.00
10030;DHT22;5055;52.054;8.524;2023-02-22T06:13:00;2.60;97.00
10030;DHT22;5055;52.054;8.524;2023-02-22T06:15:29;2.60;97.00
10030;DHT22;5055;52.054;8.524;2023-02-22T06:17:57;2.60;97.00
10030;DHT22;5055;52.054;8.524;2023-02-22T06:20:27;2.60;97.00
10030;DHT22;5055;52.054;8.524;2023-02-22T06:22:57;2.60;97.00
10030;DHT22;5055;52.054;8.524;2023-02-22T06:25:28;2.60;97.00
10030;DHT22;5055;52.054;8.524;2023-02-22T06:28:07;2.60;97.00
10030;DHT22;5055;52.054;8.524;2023-02-22T06:30:36;2.50;97.00
10030;DHT22;5055;52.054;8.524;2023-02-22T06:33:05;2.50;97.00
10030;DHT22;5055;52.054;8.524;2023-02-22T06:35:39;2.50;97.00
10030;DHT22;5055;52.054;8.524;2023-02-22T06:38:21;2.50;97.00
10030;DHT22;5055;52.054;8.524;2023-02-22T06:40:56;2.50;97.00
10030;DHT22;5055;52.054;8.524;2023-02-22T06:43:24;2.50;97.00
10030;DHT22;5055;52.054;8.524;2023-02-22T06:45:53;2.60;97.00
10030;DHT22;5055;52.054;8.524;2023-02-22T06:48:24;2.60;97.00
10030;DHT22;5055;52.054;8.524;2023-02-22T06:50:53;2.60;97.00
10030;DHT22;5055;52.054;8.524;2023-02-22T06:53:21;2.60;97.00
10030;DHT22;5055;52.054;8.524;2023-02-22T06:55:52;2.60;97.00
10030;DHT22;5055;52.054;8.524;2023-02-22T06:58:22;2.70;97.00
10030;DHT22;5055;52.054;8.524;2023-02-22T07:00:50;2.80;97.00
10030;DHT22;5055;52.054;8.524;2023-02-22T07:03:19;2.80;97.00
10030;DHT22;5055;52.054;8.524;2023-02-22T07:05:48;2.90;97.00
10030;DHT22;5055;52.054;8.524;2023-02-22T07:08:16;2.90;97.00
10030;DHT22;5055;52.054;8.524;2023-02-22T07:10:45;3.00;97.00
10030;DHT22;5055;52.054;8.524;2023-02-22T07:13:16;3.00;97.00
10030;DHT22;5055;52.054;8.524;2023-02-22T07:15:46;3.10;97.00
10030;DHT22;5055;52.054;8.524;2023-02-22T07:18:14;3.20;97.00
10030;DHT22;5055;52.054;8.524;2023-02-22T07:20:43;3.30;97.00
10030;DHT22;5055;52.054;8.524;2023-02-22T07:23:13;3.40;97.00
10030;DHT22;5055;52.054;8.524;2023-02-22T07:25:42;3.50;97.00
10030;DHT22;5055;52.054;8.524;2023-02-22T07:28:11;3.60;97.00
10030;DHT22;5055;52.054;8.524;2023-02-22T07:30:39;3.80;97.00
10030;DHT22;5055;52.054;8.524;2023-02-22T07:33:11;3.90;97.00
10030;DHT22;5055;52.054;8.524;2023-02-22T07:35:44;4.10;97.00
10030;DHT22;5055;52.054;8.524;2023-02-22T07:38:14;4.30;97.00
10030;DHT22;5055;52.054;8.524;2023-02-22T07:40:43;4.50;97.00
10030;DHT22;5055;52.054;8.524;2023-02-22T07:43:16;4.70;97.00
10030;DHT22;5055;52.054;8.524;2023-02-22T07:45:46;4.80;97.00
10030;DHT22;5055;52.054;8.524;2023-02-22T07:48:18;5.00;97.00
10030;DHT22;5055;52.054;8.524;2023-02-22T07:50:48;5.10;97.00
10030;DHT22;5055;52.054;8.524;2023-02-22T07:53:18;5.20;97.00
10030;DHT22;5055;52.054;8.524;2023-02-22T07:55:47;5.30;97.00
10030;DHT22;5055;52.054;8.524;2023-02-22T07:58:19;5.40;97.00
10030;DHT22;5055;52.054;8.524;2023-02-22T08:00:48;5.40;97.00
10030;DHT22;5055;52.054;8.524;2023-02-22T08:03:19;5.60;97.00
10030;DHT22;5055;52.054;8.524;2023-02-22T08:05:49;5.80;97.00
10030;DHT22;5055;52.054;8.524;2023-02-22T08:08:19;5.90;97.00
10030;DHT22;5055;52.054;8.524;2023-02-22T08:10:48;6.00;97.00
10030;DHT22;5055;52.054;8.524;2023-02-22T08:13:18;6.10;97.00
10030;DHT22;5055;52.054;8.524;2023-02-22T08:15:50;6.30;97.00
10030;DHT22;5055;52.054;8.524;2023-02-22T08:18:21;6.40;97.00
10030;DHT22;5055;52.054;8.524;2023-02-22T08:20:51;6.60;97.00
10030;DHT22;5055;52.054;8.524;2023-02-22T08:23:21;6.80;97.00
10030;DHT22;5055;52.054;8.524;2023-02-22T08:25:51;7.00;97.00
10030;DHT22;5055;52.054;8.524;2023-02-22T08:28:23;7.40;97.00
10030;DHT22;5055;52.054;8.524;2023-02-22T08:30:52;7.70;97.00
10030;DHT22;5055;52.054;8.524;2023-02-22T08:33:22;8.00;97.00
10030;DHT22;5055;52.054;8.524;2023-02-22T08:35:51;8.30;97.00
10030;DHT22;5055;52.054;8.524;2023-02-22T08:38:21;8.60;97.00
10030;DHT22;5055;52.054;8.524;2023-02-22T08:40:50;9.00;97.00
10030;DHT22;5055;52.054;8.524;2023-02-22T08:43:19;9.30;97.00
10030;DHT22;5055;52.054;8.524;2023-02-22T08:45:49;9.50;97.00
10030;DHT22;5055;52.054;8.524;2023-02-22T08:48:20;9.70;97.00
10030;DHT22;5055;52.054;8.524;2023-02-22T08:50:50;9.90;97.00
10030;DHT22;5055;52.054;8.524;2023-02-22T08:53:18;10.00;97.00
10030;DHT22;5055;52.054;8.524;2023-02-22T08:55:46;10.20;97.00
10030;DHT22;5055;52.054;8.524;2023-02-22T08:58:15;10.30;97.00
10030;DHT22;5055;52.054;8.524;2023-02-22T09:00:44;10.40;97.00
10030;DHT22;5055;52.054;8.524;2023-02-22T09:03:14;10.40;97.00
10030;DHT22;5055;52.054;8.524;2023-02-22T09:05:43;10.60;97.00
10030;DHT22;5055;52.054;8.524;2023-02-22T09:08:14;10.80;97.00
10030;DHT22;5055;52.054;8.524;2023-02-22T09:10:43;10.90;97.00
10030;DHT22;5055;52.054;8.524;2023-02-22T09:13:12;11.10;97.00
10030;DHT22;5055;52.054;8.524;2023-02-22T09:15:40;11.20;97.00
10030;DHT22;5055;52.054;8.524;2023-02-22T09:18:10;11.20;97.00
10030;DHT22;5055;52.054;8.524;2023-02-22T09:20:41;11.30;97.00
10030;DHT22;5055;52.054;8.524;2023-02-22T09:23:09;11.40;97.00
10030;DHT22;5055;52.054;8.524;2023-02-22T09:25:41;11.60;97.00
10030;DHT22;5055;52.054;8.524;2023-02-22T09:28:10;11.70;97.00
10030;DHT22;5055;52.054;8.524;2023-02-22T09:30:38;11.90;97.00
10030;DHT22;5055;52.054;8.524;2023-02-22T09:33:09;11.80;97.00
10030;DHT22;5055;52.054;8.524;2023-02-22T09:35:39;11.80;97.00
10030;DHT22;5055;52.054;8.524;2023-02-22T09:38:16;11.80;97.00
10030;DHT22;5055;52.054;8.524;2023-02-22T09:40:48;11.90;97.00
10030;DHT22;5055;52.054;8.524;2023-02-22T09:43:29;12.00;97.00
10030;DHT22;5055;52.054;8.524;2023-02-22T09:46:13;12.10;97.00
10030;DHT22;5055;52.054;8.524;2023-02-22T09:49:01;12.20;97.00
10030;DHT22;5055;52.054;8.524;2023-02-22T09:51:36;12.30;97.00
10030;DHT22;5055;52.054;8.524;2023-02-22T09:54:18;12.50;97.00
10030;DHT22;5055;52.054;8.524;2023-02-22T09:56:55;12.60;97.00
10030;DHT22;5055;52.054;8.524;2023-02-22T09:59:28;12.50;97.00
10030;DHT22;5055;52.054;8.524;2023-02-22T10:02:02;12.50;97.00
10030;DHT22;5055;52.054;8.524;2023-02-22T10:04:41;12.60;97.00
10030;DHT22;5055;52.054;8.524;2023-02-22T10:07:16;12.70;97.00
10030;DHT22;5055;52.054;8.524;2023-02-22T10:09:47;12.70;97.00
10030;DHT22;5055;52.054;8.524;2023-02-22T10:12:26;13.00;97.00
10030;DHT22;5055;52.054;8.524;2023-02-22T10:15:09;13.10;97.00
10030;DHT22;5055;52.054;8.524;2023-02-22T10:17:48;13.30;97.00
10030;DHT22;5055;52.054;8.524;2023-02-22T10:20:34;13.20;97.00
10030;DHT22;5055;52.054;8.524;2023-02-22T10:23:13;13.50;97.00
10030;DHT22;5055;52.054;8.524;2023-02-22T10:25:50;13.60;97.00
10030;DHT22;5055;52.054;8.524;2023-02-22T10:28:24;13.60;97.00
10030;DHT22;5055;52.054;8.524;2023-02-22T10:30:59;13.40;97.00
10030;DHT22;5055;52.054;8.524;2023-02-22T10:33:34;13.40;97.00
10030;DHT22;5055;52.054;8.524;2023-02-22T10:36:04;13.60;97.00
10030;DHT22;5055;52.054;8.524;2023-02-22T10:38:34;13.70;97.00
10030;DHT22;5055;52.054;8.524;2023-02-22T10:41:19;13.70;97.00
10030;DHT22;5055;52.054;8.524;2023-02-22T10:43:51;13.80;97.00
10030;DHT22;5055;52.054;8.524;2023-02-22T10:46:21;13.80;97.00
10030;DHT22;5055;52.054;8.524;2023-02-22T10:48:54;14.00;97.00
10030;DHT22;5055;52.054;8.524;2023-02-22T10:51:23;14.10;97.00
10030;DHT22;5055;52.054;8.524;2023-02-22T10:53:58;14.20;97.00
10030;DHT22;5055;52.054;8.524;2023-02-22T10:56:30;14.30;97.00
10030;DHT22;5055;52.054;8.524;2023-02-22T10:59:02;14.40;97.00
10030;DHT22;5055;52.054;8.524;2023-02-22T11:01:36;14.70;97.00
10030;DHT22;5055;52.054;8.524;2023-02-22T11:04:11;14.90;97.00
10030;DHT22;5055;52.054;8.524;2023-02-22T11:06:42;15.00;97.00
10030;DHT22;5055;52.054;8.524;2023-02-22T11:09:14;14.80;97.00
10030;DHT22;5055;52.054;8.524;2023-02-22T11:11:45;14.80;97.00
10030;DHT22;5055;52.054;8.524;2023-02-22T11:14:27;15.10;97.00
10030;DHT22;5055;52.054;8.524;2023-02-22T11:16:57;15.40;97.00
10030;DHT22;5055;52.054;8.524;2023-02-22T11:19:28;15.30;97.00
10030;DHT22;5055;52.054;8.524;2023-02-22T11:22:07;15.30;97.00
10030;DHT22;5055;52.054;8.524;2023-02-22T11:24:43;15.30;97.00
10030;DHT22;5055;52.054;8.524;2023-02-22T11:27:29;15.50;97.00
10030;DHT22;5055;52.054;8.524;2023-02-22T11:30:14;15.60;97.00
10030;DHT22;5055;52.054;8.524;2023-02-22T11:32:46;15.50;97.00
10030;DHT22;5055;52.054;8.524;2023-02-22T11:35:30;15.70;97.00
10030;DHT22;5055;52.054;8.524;2023-02-22T11:38:11;15.90;97.00
10030;DHT22;5055;52.054;8.524;2023-02-22T11:40:43;15.90;97.00
10030;DHT22;5055;52.054;8.524;2023-02-22T11:43:15;15.80;97.00
10030;DHT22;5055;52.054;8.524;2023-02-22T11:45:59;15.90;97.00
10030;DHT22;5055;52.054;8.524;2023-02-22T11:48:32;16.00;97.00
10030;DHT22;5055;52.054;8.524;2023-02-22T11:51:13;15.90;97.00
10030;DHT22;5055;52.054;8.524;2023-02-22T11:53:56;16.00;97.00
10030;DHT22;5055;52.054;8.524;2023-02-22T11:56:36;15.80;97.00
10030;DHT22;5055;52.054;8.524;2023-02-22T11:59:15;15.80;97.00
10030;DHT22;5055;52.054;8.524;2023-02-22T12:01:52;15.70;97.00
10030;DHT22;5055;52.054;8.524;2023-02-22T12:04:54;15.60;97.00
10030;DHT22;5055;52.054;8.524;2023-02-22T12:07:39;15.60;97.00
10030;DHT22;5055;52.054;8.524;2023-02-22T12:10:19;15.80;97.00
10030;DHT22;5055;52.054;8.524;2023-02-22T12:13:02;15.90;97.00
10030;DHT22;5055;52.054;8.524;2023-02-22T12:15:37;16.00;97.00
10030;DHT22;5055;52.054;8.524;2023-02-22T12:18:14;16.00;97.00
10030;DHT22;5055;52.054;8.524;2023-02-22T12:20:46;15.90;97.00
10030;DHT22;5055;52.054;8.524;2023-02-22T12:23:20;15.90;97.00
10030;DHT22;5055;52.054;8.524;2023-02-22T12:26:00;15.70;97.00
10030;DHT22;5055;52.054;8.524;2023-02-22T12:28:34;15.90;97.00
10030;DHT22;5055;52.054;8.524;2023-02-22T12:31:09;16.10;97.00
10030;DHT22;5055;52.054;8.524;2023-02-22T12:33:53;16.10;97.00
10030;DHT22;5055;52.054;8.524;2023-02-22T12:36:29;16.30;97.00
10030;DHT22;5055;52.054;8.524;2023-02-22T12:39:02;16.40;97.00
10030;DHT22;5055;52.054;8.524;2023-02-22T12:41:36;16.80;97.00
10030;DHT22;5055;52.054;8.524;2023-02-22T12:44:09;17.10;97.00
10030;DHT22;5055;52.054;8.524;2023-02-22T12:46:46;17.50;97.00
10030;DHT22;5055;52.054;8.524;2023-02-22T12:49:22;17.40;97.00
10030;DHT22;5055;52.054;8.524;2023-02-22T12:51:57;17.40;97.00
10030;DHT22;5055;52.054;8.524;2023-02-22T12:54:50;17.60;97.00
10030;DHT22;5055;52.054;8.524;2023-02-22T12:57:30;17.70;97.00
10030;DHT22;5055;52.054;8.524;2023-02-22T13:00:05;17.90;97.00
10030;DHT22;5055;52.054;8.524;2023-02-22T13:02:37;18.10;97.00
10030;DHT22;5055;52.054;8.524;2023-02-22T13:05:14;18.10;97.00
10030;DHT22;5055;52.054;8.524;2023-02-22T13:07:47;18.30;97.00
10030;DHT22;5055;52.054;8.524;2023-02-22T13:10:29;18.20;97.00
10030;DHT22;5055;52.054;8.524;2023-02-22T13:13:05;18.10;97.00
10030;DHT22;5055;52.054;8.524;2023-02-22T13:15:42;17.70;97.00
10030;DHT22;5055;52.054;8.524;2023-02-22T13:18:18;17.70;97.00
10030;DHT22;5055;52.054;8.524;2023-02-22T13:20:55;17.80;97.00
10030;DHT22;5055;52.054;8.524;2023-02-22T13:23:32;17.80;97.00
10030;DHT22;5055;52.054;8.524;2023-02-22T13:26:09;17.70;97.00
10030;DHT22;5055;52.054;8.524;2023-02-22T13:28:43;17.70;97.00
10030;DHT22;5055;52.054;8.524;2023-02-22T13:31:28;17.60;97.00
10030;DHT22;5055;52.054;8.524;2023-02-22T13:34:17;17.80;97.00
10030;DHT22;5055;52.054;8.524;2023-02-22T13:37:11;18.00;97.00
10030;DHT22;5055;52.054;8.524;2023-02-22T13:40:02;18.40;97.00
10030;DHT22;5055;52.054;8.524;2023-02-22T13:45:57;18.30;97.00
10030;DHT22;5055;52.054;8.524;2023-02-22T13:48:41;18.60;97.00
10030;DHT22;5055;52.054;8.524;2023-02-22T13:51:31;18.60;97.00
10030;DHT22;5055;52.054;8.524;2023-02-22T13:54:06;18.70;97.00
10030;DHT22;5055;52.054;8.524;2023-02-22T13:56:41;18.50;97.00
10030;DHT22;5055;52.054;8.524;2023-02-22T13:59:23;18.60;97.00
10030;DHT22;5055;52.054;8.524;2023-02-22T14:01:52;18.60;97.00
10030;DHT22;5055;52.054;8.524;2023-02-22T14:04:40;18.70;97.00
10030;DHT22;5055;52.054;8.524;2023-02-22T14:10:43;18.60;97.00
10030;DHT22;5055;52.054;8.524;2023-02-22T14:13:13;18.80;97.00
10030;DHT22;5055;52.054;8.524;2023-02-22T14:18:46;18.80;97.00
10030;DHT22;5055;52.054;8.524;2023-02-22T14:21:17;18.70;97.00
10030;DHT22;5055;52.054;8.524;2023-02-22T14:23:47;18.50;97.00
10030;DHT22;5055;52.054;8.524;2023-02-22T14:26:22;18.40;97.00
10030;DHT22;5055;52.054;8.524;2023-02-22T14:28:54;18.10;97.00
10030;DHT22;5055;52.054;8.524;2023-02-22T14:31:25;17.90;97.00
10030;DHT22;5055;52.054;8.524;2023-02-22T14:34:08;17.60;97.00
10030;DHT22;5055;52.054;8.524;2023-02-22T14:36:45;17.40;97.00
10030;DHT22;5055;52.054;8.524;2023-02-22T14:39:24;17.20;97.00
10030;DHT22;5055;52.054;8.524;2023-02-22T14:42:01;17.00;97.00
10030;DHT22;5055;52.054;8.524;2023-02-22T14:44:35;16.90;97.00
10030;DHT22;5055;52.054;8.524;2023-02-22T14:47:08;16.90;97.00
10030;DHT22;5055;52.054;8.524;2023-02-22T14:49:44;16.80;97.00
10030;DHT22;5055;52.054;8.524;2023-02-22T14:52:22;16.80;97.00
10030;DHT22;5055;52.054;8.524;2023-02-22T14:54:59;16.70;97.00
10030;DHT22;5055;52.054;8.524;2023-02-22T14:57:39;16.50;97.00
10030;DHT22;5055;52.054;8.524;2023-02-22T15:00:18;16.40;97.00
10030;DHT22;5055;52.054;8.524;2023-02-22T15:02:58;16.40;97.00
10030;DHT22;5055;52.054;8.524;2023-02-22T15:05:28;16.40;97.00
10030;DHT22;5055;52.054;8.524;2023-02-22T15:08:00;16.30;97.00
10030;DHT22;5055;52.054;8.524;2023-02-22T15:10:30;16.20;97.00
10030;DHT22;5055;52.054;8.524;2023-02-22T15:13:17;16.20;97.00
10030;DHT22;5055;52.054;8.524;2023-02-22T15:15:47;16.10;97.00
10030;DHT22;5055;52.054;8.524;2023-02-22T15:18:23;16.10;97.00
10030;DHT22;5055;52.054;8.524;2023-02-22T15:20:56;16.00;97.00
10030;DHT22;5055;52.054;8.524;2023-02-22T15:23:27;15.80;97.00
10030;DHT22;5055;52.054;8.524;2023-02-22T15:25:59;15.70;97.00
10030;DHT22;5055;52.054;8.524;2023-02-22T15:28:30;15.60;97.00
10030;DHT22;5055;52.054;8.524;2023-02-22T15:31:21;15.40;97.00
10030;DHT22;5055;52.054;8.524;2023-02-22T15:33:51;15.30;97.00
10030;DHT22;5055;52.054;8.524;2023-02-22T15:36:25;15.20;97.00
10030;DHT22;5055;52.054;8.524;2023-02-22T15:38:54;15.20;97.00
10030;DHT22;5055;52.054;8.524;2023-02-22T15:41:30;15.20;97.00
10030;DHT22;5055;52.054;8.524;2023-02-22T15:44:04;15.10;97.00
10030;DHT22;5055;52.054;8.524;2023-02-22T15:46:49;15.00;97.00
10030;DHT22;5055;52.054;8.524;2023-02-22T15:49:21;15.00;97.00
10030;DHT22;5055;52.054;8.524;2023-02-22T15:52:03;15.00;97.00
10030;DHT22;5055;52.054;8.524;2023-02-22T15:54:41;14.90;97.00
10030;DHT22;5055;52.054;8.524;2023-02-22T15:57:21;14.90;97.00
10030;DHT22;5055;52.054;8.524;2023-02-22T15:59:55;14.80;97.00
10030;DHT22;5055;52.054;8.524;2023-02-22T16:02:35;14.80;97.00
10030;DHT22;5055;52.054;8.524;2023-02-22T16:05:08;14.70;97.00
10030;DHT22;5055;52.054;8.524;2023-02-22T16:07:41;14.60;97.00
10030;DHT22;5055;52.054;8.524;2023-02-22T16:10:24;14.50;97.00
10030;DHT22;5055;52.054;8.524;2023-02-22T16:13:04;14.40;97.00
10030;DHT22;5055;52.054;8.524;2023-02-22T16:15:34;14.30;97.00
10030;DHT22;5055;52.054;8.524;2023-02-22T16:18:25;14.20;97.00
10030;DHT22;5055;52.054;8.524;2023-02-22T16:21:00;14.20;97.00
10030;DHT22;5055;52.054;8.524;2023-02-22T16:23:30;14.10;97.00
10030;DHT22;5055;52.054;8.524;2023-02-22T16:26:17;14.00;97.00
10030;DHT22;5055;52.054;8.524;2023-02-22T16:28:47;14.00;97.00
10030;DHT22;5055;52.054;8.524;2023-02-22T16:31:23;13.90;97.00
10030;DHT22;5055;52.054;8.524;2023-02-22T16:33:53;13.80;97.00
10030;DHT22;5055;52.054;8.524;2023-02-22T16:36:35;13.70;97.00
10030;DHT22;5055;52.054;8.524;2023-02-22T16:39:05;13.60;97.00
10030;DHT22;5055;52.054;8.524;2023-02-22T16:41:34;13.50;97.00
10030;DHT22;5055;52.054;8.524;2023-02-22T16:44:04;13.40;97.00